sensor_id;sensor_type;location;lat;lon;timestamp;pressure;altitude;pressure_sealevel;temperature
13410;BMP180;6775;49.574;11.170;2024-02-26T00:00:00;95837.72;;;3.68
13410;BMP180;6775;49.574;11.170;2024-02-26T00:02:29;95843.25;;;3.73
13410;BMP180;6775;49.574;11.170;2024-02-26T00:04:58;95841.22;;;3.67
13410;BMP180;6775;49.574;11.170;2024-02-26T00:07:26;95836.03;;;3.58
13410;BMP180;6775;49.574;11.170;2024-02-26T00:09:54;95840.91;;;3.50
13410;BMP180;6775;49.574;11.170;2024-02-26T00:12:22;95839.66;;;3.45
13410;BMP180;6775;49.574;11.170;2024-02-26T00:14:50;95830.53;;;3.42
13410;BMP180;6775;49.574;11.170;2024-02-26T00:17:21;95826.38;;;3.41
13410;BMP180;6775;49.574;11.170;2024-02-26T00:19:49;95829.97;;;3.39
13410;BMP180;6775;49.574;11.170;2024-02-26T00:22:16;95829.50;;;3.45
13410;BMP180;6775;49.574;11.170;2024-02-26T00:24:44;95835.47;;;3.54
13410;BMP180;6775;49.574;11.170;2024-02-26T00:27:12;95833.25;;;3.61
13410;BMP180;6775;49.574;11.170;2024-02-26T00:29:40;95830.47;;;3.64
13410;BMP180;6775;49.574;11.170;2024-02-26T00:32:08;95832.44;;;3.60
13410;BMP180;6775;49.574;11.170;2024-02-26T00:34:37;95823.91;;;3.61
13410;BMP180;6775;49.574;11.170;2024-02-26T00:37:05;95821.69;;;3.57
13410;BMP180;6775;49.574;11.170;2024-02-26T00:39:34;95820.00;;;3.57
13410;BMP180;6775;49.574;11.170;2024-02-26T00:42:02;95819.03;;;3.58
13410;BMP180;6775;49.574;11.170;2024-02-26T00:44:30;95818.59;;;3.64
13410;BMP180;6775;49.574;11.170;2024-02-26T00:46:59;95813.25;;;3.67
13410;BMP180;6775;49.574;11.170;2024-02-26T00:49:27;95817.06;;;3.73
13410;BMP180;6775;49.574;11.170;2024-02-26T00:51:56;95806.91;;;3.73
13410;BMP180;6775;49.574;11.170;2024-02-26T00:54:26;95814.66;;;3.71
13410;BMP180;6775;49.574;11.170;2024-02-26T00:56:55;95811.88;;;3.63
13410;BMP180;6775;49.574;11.170;2024-02-26T00:59:23;95806.81;;;3.63
13410;BMP180;6775;49.574;11.170;2024-02-26T01:01:51;95811.22;;;3.61
13410;BMP180;6775;49.574;11.170;2024-02-26T01:04:19;95808.78;;;3.60
13410;BMP180;6775;49.574;11.170;2024-02-26T01:06:47;95815.34;;;3.62
13410;BMP180;6775;49.574;11.170;2024-02-26T01:09:17;95815.47;;;3.61
13410;BMP180;6775;49.574;11.170;2024-02-26T01:11:45;95819.25;;;3.66
13410;BMP180;6775;49.574;11.170;2024-02-26T01:14:14;95814.19;;;3.66
13410;BMP180;6775;49.574;11.170;2024-02-26T01:16:42;95817.63;;;3.65
13410;BMP180;6775;49.574;11.170;2024-02-26T01:19:10;95814.19;;;3.66
13410;BMP180;6775;49.574;11.170;2024-02-26T01:21:39;95811.66;;;3.66
13410;BMP180;6775;49.574;11.170;2024-02-26T01:24:07;95812.78;;;3.73
13410;BMP180;6775;49.574;11.170;2024-02-26T01:26:36;95811.16;;;3.72
13410;BMP180;6775;49.574;11.170;2024-02-26T01:29:05;95810.59;;;3.69
13410;BMP180;6775;49.574;11.170;2024-02-26T01:31:33;95813.94;;;3.69
13410;BMP180;6775;49.574;11.170;2024-02-26T01:34:01;95816.69;;;3.77
13410;BMP180;6775;49.574;11.170;2024-02-26T01:36:30;95816.13;;;3.74
13410;BMP180;6775;49.574;11.170;2024-02-26T01:38:58;95816.69;;;3.77
13410;BMP180;6775;49.574;11.170;2024-02-26T01:41:26;95819.03;;;3.69
13410;BMP180;6775;49.574;11.170;2024-02-26T01:43:55;95817.41;;;3.68
13410;BMP180;6775;49.574;11.170;2024-02-26T01:46:24;95808.84;;;3.69
13410;BMP180;6775;49.574;11.170;2024-02-26T01:48:52;95815.09;;;3.65
13410;BMP180;6775;49.574;11.170;2024-02-26T01:51:21;95816.41;;;3.60
13410;BMP180;6775;49.574;11.170;2024-02-26T01:53:50;95809.84;;;3.57
13410;BMP180;6775;49.574;11.170;2024-02-26T01:56:21;95809.78;;;3.68
13410;BMP180;6775;49.574;11.170;2024-02-26T01:58:57;95804.91;;;3.76
13410;BMP180;6775;49.574;11.170;2024-02-26T02:01:27;95802.88;;;3.91
13410;BMP180;6775;49.574;11.170;2024-02-26T02:03:59;95794.91;;;3.95
13410;BMP180;6775;49.574;11.170;2024-02-26T02:06:27;95797.66;;;4.03
13410;BMP180;6775;49.574;11.170;2024-02-26T02:08:56;95799.84;;;4.17
13410;BMP180;6775;49.574;11.170;2024-02-26T02:11:24;95790.50;;;4.17
13410;BMP180;6775;49.574;11.170;2024-02-26T02:13:52;95794.53;;;4.20
13410;BMP180;6775;49.574;11.170;2024-02-26T02:16:22;95782.19;;;4.36
13410;BMP180;6775;49.574;11.170;2024-02-26T02:18:50;95796.00;;;4.43
13410;BMP180;6775;49.574;11.170;2024-02-26T02:21:20;95794.16;;;4.45
13410;BMP180;6775;49.574;11.170;2024-02-26T02:23:49;95784.16;;;4.52
13410;BMP180;6775;49.574;11.170;2024-02-26T02:26:18;95795.28;;;4.51
13410;BMP180;6775;49.574;11.170;2024-02-26T02:28:48;95787.78;;;4.50
13410;BMP180;6775;49.574;11.170;2024-02-26T02:31:16;95791.78;;;4.52
13410;BMP180;6775;49.574;11.170;2024-02-26T02:33:45;95794.06;;;4.55
13410;BMP180;6775;49.574;11.170;2024-02-26T02:36:13;95793.31;;;4.64
13410;BMP180;6775;49.574;11.170;2024-02-26T02:38:50;95796.97;;;4.71
13410;BMP180;6775;49.574;11.170;2024-02-26T02:41:19;95795.09;;;4.73
13410;BMP180;6775;49.574;11.170;2024-02-26T02:43:47;95797.66;;;4.73
13410;BMP180;6775;49.574;11.170;2024-02-26T02:46:15;95796.97;;;4.71
13410;BMP180;6775;49.574;11.170;2024-02-26T02:48:44;95795.38;;;4.70
13410;BMP180;6775;49.574;11.170;2024-02-26T02:51:12;95804.75;;;4.79
13410;BMP180;6775;49.574;11.170;2024-02-26T02:53:40;95795.16;;;4.83
13410;BMP180;6775;49.574;11.170;2024-02-26T02:56:10;95792.97;;;4.78
13410;BMP180;6775;49.574;11.170;2024-02-26T02:58:38;95801.00;;;4.74
13410;BMP180;6775;49.574;11.170;2024-02-26T03:01:06;95804.50;;;4.73
13410;BMP180;6775;49.574;11.170;2024-02-26T03:03:34;95810.38;;;4.73
13410;BMP180;6775;49.574;11.170;2024-02-26T03:06:04;95807.97;;;4.72
13410;BMP180;6775;49.574;11.170;2024-02-26T03:08:32;95807.97;;;4.72
13410;BMP180;6775;49.574;11.170;2024-02-26T03:11:04;95806.34;;;4.71
13410;BMP180;6775;49.574;11.170;2024-02-26T03:13:33;95802.28;;;4.68
13410;BMP180;6775;49.574;11.170;2024-02-26T03:16:05;95804.84;;;4.68
13410;BMP180;6775;49.574;11.170;2024-02-26T03:18:33;95805.78;;;4.67
13410;BMP180;6775;49.574;11.170;2024-02-26T03:21:02;95803.25;;;4.67
13410;BMP180;6775;49.574;11.170;2024-02-26T03:23:30;95802.56;;;4.65
13410;BMP180;6775;49.574;11.170;2024-02-26T03:26:04;95797.47;;;4.65
13410;BMP180;6775;49.574;11.170;2024-02-26T03:28:33;95793.19;;;4.66
13410;BMP180;6775;49.574;11.170;2024-02-26T03:31:01;95789.72;;;4.67
13410;BMP180;6775;49.574;11.170;2024-02-26T03:33:30;95787.84;;;4.69
13410;BMP180;6775;49.574;11.170;2024-02-26T03:35:58;95785.31;;;4.69
13410;BMP180;6775;49.574;11.170;2024-02-26T03:38:26;95792.13;;;4.68
13410;BMP180;6775;49.574;11.170;2024-02-26T03:40:54;95793.88;;;4.68
13410;BMP180;6775;49.574;11.170;2024-02-26T03:43:23;95791.19;;;4.69
13410;BMP180;6775;49.574;11.170;2024-02-26T03:45:52;95795.38;;;4.70
13410;BMP180;6775;49.574;11.170;2024-02-26T03:48:20;95796.97;;;4.71
13410;BMP180;6775;49.574;11.170;2024-02-26T03:50:49;95791.91;;;4.71
13410;BMP180;6775;49.574;11.170;2024-02-26T03:53:17;95792.81;;;4.70
13410;BMP180;6775;49.574;11.170;2024-02-26T03:55:45;95791.19;;;4.69
13410;BMP180;6775;49.574;11.170;2024-02-26T03:58:13;95795.63;;;4.67
13410;BMP180;6775;49.574;11.170;2024-02-26T04:00:42;95797.47;;;4.65
13410;BMP180;6775;49.574;11.170;2024-02-26T04:03:12;95795.88;;;4.64
13410;BMP180;6775;49.574;11.170;2024-02-26T04:05:40;95794.50;;;4.60
13410;BMP180;6775;49.574;11.170;2024-02-26T04:08:09;95792.09;;;4.59
13410;BMP180;6775;49.574;11.170;2024-02-26T04:10:37;95793.94;;;4.57
13410;BMP180;6775;49.574;11.170;2024-02-26T04:13:08;95788.06;;;4.56
13410;BMP180;6775;49.574;11.170;2024-02-26T04:15:36;95791.41;;;4.57
13410;BMP180;6775;49.574;11.170;2024-02-26T04:18:04;95794.50;;;4.60
13410;BMP180;6775;49.574;11.170;2024-02-26T04:20:34;95791.28;;;4.58
13410;BMP180;6775;49.574;11.170;2024-02-26T04:23:03;95798.59;;;4.52
13410;BMP180;6775;49.574;11.170;2024-02-26T04:25:32;95798.06;;;4.49
13410;BMP180;6775;49.574;11.170;2024-02-26T04:28:00;95811.03;;;4.46
13410;BMP180;6775;49.574;11.170;2024-02-26T04:30:28;95818.66;;;4.46
13410;BMP180;6775;49.574;11.170;2024-02-26T04:32:56;95820.13;;;4.48
13410;BMP180;6775;49.574;11.170;2024-02-26T04:35:24;95820.38;;;4.45
13410;BMP180;6775;49.574;11.170;2024-02-26T04:37:54;95835.59;;;4.36
13410;BMP180;6775;49.574;11.170;2024-02-26T04:40:22;95822.28;;;4.23
13410;BMP180;6775;49.574;11.170;2024-02-26T04:42:50;95814.13;;;4.08
13410;BMP180;6775;49.574;11.170;2024-02-26T04:45:19;95820.50;;;4.03
13410;BMP180;6775;49.574;11.170;2024-02-26T04:47:47;95814.47;;;4.04
13410;BMP180;6775;49.574;11.170;2024-02-26T04:50:15;95821.66;;;4.10
13410;BMP180;6775;49.574;11.170;2024-02-26T04:52:43;95825.41;;;4.15
13410;BMP180;6775;49.574;11.170;2024-02-26T04:55:13;95836.03;;;4.20
13410;BMP180;6775;49.574;11.170;2024-02-26T04:57:41;95828.28;;;4.22
13410;BMP180;6775;49.574;11.170;2024-02-26T05:00:11;95834.97;;;4.23
13410;BMP180;6775;49.574;11.170;2024-02-26T05:02:40;95835.19;;;4.20
13410;BMP180;6775;49.574;11.170;2024-02-26T05:05:08;95833.72;;;4.17
13410;BMP180;6775;49.574;11.170;2024-02-26T05:07:40;95829.31;;;4.19
13410;BMP180;6775;49.574;11.170;2024-02-26T05:10:09;95833.34;;;4.22
13410;BMP180;6775;49.574;11.170;2024-02-26T05:12:39;95835.66;;;4.25
13410;BMP180;6775;49.574;11.170;2024-02-26T05:15:09;95834.47;;;4.29
13410;BMP180;6775;49.574;11.170;2024-02-26T05:17:38;95838.50;;;4.31
13410;BMP180;6775;49.574;11.170;2024-02-26T05:20:07;95846.56;;;4.36
13410;BMP180;6775;49.574;11.170;2024-02-26T05:22:36;95837.66;;;4.42
13410;BMP180;6775;49.574;11.170;2024-02-26T05:25:05;95841.44;;;4.47
13410;BMP180;6775;49.574;11.170;2024-02-26T05:27:33;95830.88;;;4.51
13410;BMP180;6775;49.574;11.170;2024-02-26T05:30:03;95834.75;;;4.55
13410;BMP180;6775;49.574;11.170;2024-02-26T05:32:32;95834.53;;;4.58
13410;BMP180;6775;49.574;11.170;2024-02-26T05:35:00;95825.03;;;4.60
13410;BMP180;6775;49.574;11.170;2024-02-26T05:37:30;95826.53;;;4.63
13410;BMP180;6775;49.574;11.170;2024-02-26T05:39:59;95829.88;;;4.63
13410;BMP180;6775;49.574;11.170;2024-02-26T05:42:27;95835.88;;;4.62
13410;BMP180;6775;49.574;11.170;2024-02-26T05:44:56;95834.41;;;4.60
13410;BMP180;6775;49.574;11.170;2024-02-26T05:47:26;95836.38;;;4.56
13410;BMP180;6775;49.574;11.170;2024-02-26T05:49:54;95829.56;;;4.57
13410;BMP180;6775;49.574;11.170;2024-02-26T05:52:25;95835.47;;;4.57
13410;BMP180;6775;49.574;11.170;2024-02-26T05:54:53;95850.47;;;4.60
13410;BMP180;6775;49.574;11.170;2024-02-26T05:57:21;95838.41;;;4.62
13410;BMP180;6775;49.574;11.170;2024-02-26T05:59:50;95847.00;;;4.61
13410;BMP180;6775;49.574;11.170;2024-02-26T06:02:18;95844.34;;;4.63
13410;BMP180;6775;49.574;11.170;2024-02-26T06:04:47;95847.00;;;4.61
13410;BMP180;6775;49.574;11.170;2024-02-26T06:07:15;95849.69;;;4.60
13410;BMP180;6775;49.574;11.170;2024-02-26T06:09:43;95857.44;;;4.58
13410;BMP180;6775;49.574;11.170;2024-02-26T06:12:12;95863.44;;;4.57
13410;BMP180;6775;49.574;11.170;2024-02-26T06:14:41;95866.00;;;4.57
13410;BMP180;6775;49.574;11.170;2024-02-26T06:17:09;95871.06;;;4.57
13410;BMP180;6775;49.574;11.170;2024-02-26T06:19:37;95874.16;;;4.61
13410;BMP180;6775;49.574;11.170;2024-02-26T06:22:07;95869.41;;;4.67
13410;BMP180;6775;49.574;11.170;2024-02-26T06:24:35;95873.97;;;4.73
13410;BMP180;6775;49.574;11.170;2024-02-26T06:27:03;95874.66;;;4.75
13410;BMP180;6775;49.574;11.170;2024-02-26T06:29:32;95874.66;;;4.75
13410;BMP180;6775;49.574;11.170;2024-02-26T06:32:00;95872.56;;;4.80
13410;BMP180;6775;49.574;11.170;2024-02-26T06:34:28;95872.59;;;4.90
13410;BMP180;6775;49.574;11.170;2024-02-26T06:36:56;95874.38;;;4.99
13410;BMP180;6775;49.574;11.170;2024-02-26T06:39:26;95882.31;;;5.05
13410;BMP180;6775;49.574;11.170;2024-02-26T06:41:54;95885.03;;;5.13
13410;BMP180;6775;49.574;11.170;2024-02-26T06:44:28;95886.38;;;5.17
13410;BMP180;6775;49.574;11.170;2024-02-26T06:46:58;95885.16;;;5.11
13410;BMP180;6775;49.574;11.170;2024-02-26T06:49:27;95890.41;;;5.10
13410;BMP180;6775;49.574;11.170;2024-02-26T06:51:56;95887.72;;;5.11
13410;BMP180;6775;49.574;11.170;2024-02-26T06:54:25;95894.53;;;5.11
13410;BMP180;6775;49.574;11.170;2024-02-26T06:56:54;95896.81;;;5.14
13410;BMP180;6775;49.574;11.170;2024-02-26T06:59:23;95899.38;;;5.14
13410;BMP180;6775;49.574;11.170;2024-02-26T07:01:51;95897.78;;;5.13
13410;BMP180;6775;49.574;11.170;2024-02-26T07:04:21;95896.03;;;5.13
13410;BMP180;6775;49.574;11.170;2024-02-26T07:06:50;95906.75;;;5.17
13410;BMP180;6775;49.574;11.170;2024-02-26T07:09:18;95911.63;;;5.20
13410;BMP180;6775;49.574;11.170;2024-02-26T07:11:48;95914.81;;;5.22
13410;BMP180;6775;49.574;11.170;2024-02-26T07:14:16;95912.94;;;5.24
13410;BMP180;6775;49.574;11.170;2024-02-26T07:16:44;95913.38;;;5.29
13410;BMP180;6775;49.574;11.170;2024-02-26T07:19:13;95911.09;;;5.26
13410;BMP180;6775;49.574;11.170;2024-02-26T07:21:41;95908.41;;;5.27
13410;BMP180;6775;49.574;11.170;2024-02-26T07:24:09;95909.22;;;5.28
13410;BMP180;6775;49.574;11.170;2024-02-26T07:26:37;95920.78;;;5.32
13410;BMP180;6775;49.574;11.170;2024-02-26T07:29:07;95928.56;;;5.40
13410;BMP180;6775;49.574;11.170;2024-02-26T07:31:35;95931.69;;;5.43
13410;BMP180;6775;49.574;11.170;2024-02-26T07:34:03;95938.25;;;5.46
13410;BMP180;6775;49.574;11.170;2024-02-26T07:36:32;95932.47;;;5.44
13410;BMP180;6775;49.574;11.170;2024-02-26T07:39:00;95938.94;;;5.48
13410;BMP180;6775;49.574;11.170;2024-02-26T07:41:28;95937.63;;;5.53
13410;BMP180;6775;49.574;11.170;2024-02-26T07:43:56;95938.59;;;5.61
13410;BMP180;6775;49.574;11.170;2024-02-26T07:46:26;95944.53;;;5.71
13410;BMP180;6775;49.574;11.170;2024-02-26T07:48:54;95934.09;;;5.84
13410;BMP180;6775;49.574;11.170;2024-02-26T07:51:22;95926.91;;;5.98
13410;BMP180;6775;49.574;11.170;2024-02-26T07:53:50;95938.22;;;6.14
13410;BMP180;6775;49.574;11.170;2024-02-26T07:56:19;95941.72;;;6.23
13410;BMP180;6775;49.574;11.170;2024-02-26T07:58:48;95954.88;;;6.37
13410;BMP180;6775;49.574;11.170;2024-02-26T08:01:16;95961.06;;;6.53
13410;BMP180;6775;49.574;11.170;2024-02-26T08:03:45;95971.69;;;6.58
13410;BMP180;6775;49.574;11.170;2024-02-26T08:06:14;95972.06;;;6.63
13410;BMP180;6775;49.574;11.170;2024-02-26T08:08:42;95956.75;;;6.63
13410;BMP180;6775;49.574;11.170;2024-02-26T08:11:10;95972.63;;;6.57
13410;BMP180;6775;49.574;11.170;2024-02-26T08:13:39;95978.53;;;6.58
13410;BMP180;6775;49.574;11.170;2024-02-26T08:16:07;95968.88;;;6.61
13410;BMP180;6775;49.574;11.170;2024-02-26T08:18:35;95971.81;;;6.66
13410;BMP180;6775;49.574;11.170;2024-02-26T08:21:05;95966.16;;;6.72
13410;BMP180;6775;49.574;11.170;2024-02-26T08:23:33;95977.72;;;6.76
13410;BMP180;6775;49.574;11.170;2024-02-26T08:26:01;95984.72;;;6.74
13410;BMP180;6775;49.574;11.170;2024-02-26T08:28:31;95978.53;;;6.67
13410;BMP180;6775;49.574;11.170;2024-02-26T08:30:59;95972.88;;;6.64
13410;BMP180;6775;49.574;11.170;2024-02-26T08:33:27;95970.06;;;6.57
13410;BMP180;6775;49.574;11.170;2024-02-26T08:35:56;95971.97;;;6.55
13410;BMP180;6775;49.574;11.170;2024-02-26T08:38:26;95972.88;;;6.54
13410;BMP180;6775;49.574;11.170;2024-02-26T08:40:54;95977.16;;;6.54
13410;BMP180;6775;49.574;11.170;2024-02-26T08:43:22;95986.31;;;6.66
13410;BMP180;6775;49.574;11.170;2024-02-26T08:45:50;95976.63;;;6.69
13410;BMP180;6775;49.574;11.170;2024-02-26T08:48:19;95982.94;;;6.65
13410;BMP180;6775;49.574;11.170;2024-02-26T08:50:47;95993.44;;;6.72
13410;BMP180;6775;49.574;11.170;2024-02-26T08:53:15;95991.16;;;6.69
13410;BMP180;6775;49.574;11.170;2024-02-26T08:55:55;95992.91;;;6.68
13410;BMP180;6775;49.574;11.170;2024-02-26T08:58:23;95987.66;;;6.70
13410;BMP180;6775;49.574;11.170;2024-02-26T09:00:51;95996.53;;;6.75
13410;BMP180;6775;49.574;11.170;2024-02-26T09:03:19;95994.78;;;6.76
13410;BMP180;6775;49.574;11.170;2024-02-26T09:05:48;95991.97;;;6.79
13410;BMP180;6775;49.574;11.170;2024-02-26T09:08:16;95998.56;;;6.81
13410;BMP180;6775;49.574;11.170;2024-02-26T09:10:44;95999.75;;;6.87
13410;BMP180;6775;49.574;11.170;2024-02-26T09:13:14;95997.47;;;6.93
13410;BMP180;6775;49.574;11.170;2024-02-26T09:15:42;95992.47;;;7.01
13410;BMP180;6775;49.574;11.170;2024-02-26T09:18:11;95981.88;;;7.05
13410;BMP180;6775;49.574;11.170;2024-02-26T09:20:39;95987.88;;;7.14
13410;BMP180;6775;49.574;11.170;2024-02-26T09:23:07;95987.88;;;7.33
13410;BMP180;6775;49.574;11.170;2024-02-26T09:25:35;95991.59;;;7.48
13410;BMP180;6775;49.574;11.170;2024-02-26T09:28:04;95987.47;;;7.64
13410;BMP180;6775;49.574;11.170;2024-02-26T09:30:34;95986.84;;;8.25
13410;BMP180;6775;49.574;11.170;2024-02-26T09:33:02;95979.63;;;9.32
13410;BMP180;6775;49.574;11.170;2024-02-26T09:35:31;95974.69;;;9.64
13410;BMP180;6775;49.574;11.170;2024-02-26T09:37:59;95981.16;;;9.43
13410;BMP180;6775;49.574;11.170;2024-02-26T09:40:27;95986.81;;;9.29
13410;BMP180;6775;49.574;11.170;2024-02-26T09:43:00;95988.06;;;9.25
13410;BMP180;6775;49.574;11.170;2024-02-26T09:45:30;95989.69;;;9.26
13410;BMP180;6775;49.574;11.170;2024-02-26T09:48:04;95989.81;;;9.50
13410;BMP180;6775;49.574;11.170;2024-02-26T09:50:33;95984.47;;;9.60
13410;BMP180;6775;49.574;11.170;2024-02-26T09:53:04;95991.81;;;9.55
13410;BMP180;6775;49.574;11.170;2024-02-26T09:55:34;95986.28;;;9.43
13410;BMP180;6775;49.574;11.170;2024-02-26T09:58:05;95983.97;;;9.32
13410;BMP180;6775;49.574;11.170;2024-02-26T10:00:37;95986.66;;;9.30
13410;BMP180;6775;49.574;11.170;2024-02-26T10:03:13;95981.63;;;9.21
13410;BMP180;6775;49.574;11.170;2024-02-26T10:05:44;95977.66;;;9.26
13410;BMP180;6775;49.574;11.170;2024-02-26T10:08:14;95975.56;;;9.47
13410;BMP180;6775;49.574;11.170;2024-02-26T10:10:45;95968.81;;;9.71
13410;BMP180;6775;49.574;11.170;2024-02-26T10:13:13;95960.31;;;9.71
13410;BMP180;6775;49.574;11.170;2024-02-26T10:15:41;95954.69;;;9.67
13410;BMP180;6775;49.574;11.170;2024-02-26T10:18:11;95944.22;;;9.61
13410;BMP180;6775;49.574;11.170;2024-02-26T10:20:39;95943.09;;;9.55
13410;BMP180;6775;49.574;11.170;2024-02-26T10:23:07;95945.13;;;9.44
13410;BMP180;6775;49.574;11.170;2024-02-26T10:25:36;95950.09;;;9.46
13410;BMP180;6775;49.574;11.170;2024-02-26T10:28:04;95953.69;;;9.60
13410;BMP180;6775;49.574;11.170;2024-02-26T10:30:37;95959.19;;;9.99
13410;BMP180;6775;49.574;11.170;2024-02-26T10:33:07;95959.41;;;10.21
13410;BMP180;6775;49.574;11.170;2024-02-26T10:35:37;95972.50;;;10.51
13410;BMP180;6775;49.574;11.170;2024-02-26T10:38:07;95977.34;;;10.70
13410;BMP180;6775;49.574;11.170;2024-02-26T10:40:35;95979.75;;;10.79
13410;BMP180;6775;49.574;11.170;2024-02-26T10:43:04;95982.50;;;10.70
13410;BMP180;6775;49.574;11.170;2024-02-26T10:45:32;95978.00;;;10.64
13410;BMP180;6775;49.574;11.170;2024-02-26T10:48:05;95980.38;;;10.57
13410;BMP180;6775;49.574;11.170;2024-02-26T10:50:39;95984.56;;;10.66
13410;BMP180;6775;49.574;11.170;2024-02-26T10:53:17;95983.16;;;10.96
13410;BMP180;6775;49.574;11.170;2024-02-26T10:55:52;95985.88;;;11.42
13410;BMP180;6775;49.574;11.170;2024-02-26T10:58:22;95980.88;;;11.64
13410;BMP180;6775;49.574;11.170;2024-02-26T11:00:53;95991.97;;;11.64
13410;BMP180;6775;49.574;11.170;2024-02-26T11:03:23;95989.38;;;11.80
13410;BMP180;6775;49.574;11.170;2024-02-26T11:05:55;95999.25;;;12.07
13410;BMP180;6775;49.574;11.170;2024-02-26T11:08:25;95997.31;;;12.09
13410;BMP180;6775;49.574;11.170;2024-02-26T11:10:56;95993.63;;;12.04
13410;BMP180;6775;49.574;11.170;2024-02-26T11:13:28;95996.97;;;12.20
13410;BMP180;6775;49.574;11.170;2024-02-26T11:16:02;95998.03;;;12.63
13410;BMP180;6775;49.574;11.170;2024-02-26T11:18:32;95988.41;;;13.10
13410;BMP180;6775;49.574;11.170;2024-02-26T11:21:05;96004.94;;;13.89
13410;BMP180;6775;49.574;11.170;2024-02-26T11:23:35;96001.56;;;14.46
13410;BMP180;6775;49.574;11.170;2024-02-26T11:26:05;95991.69;;;16.01
13410;BMP180;6775;49.574;11.170;2024-02-26T11:28:35;95999.38;;;17.67
13410;BMP180;6775;49.574;11.170;2024-02-26T11:31:05;96000.72;;;19.51
13410;BMP180;6775;49.574;11.170;2024-02-26T11:33:35;95988.00;;;21.28
13410;BMP180;6775;49.574;11.170;2024-02-26T11:36:10;95994.69;;;20.59
13410;BMP180;6775;49.574;11.170;2024-02-26T11:38:40;95991.03;;;19.34
13410;BMP180;6775;49.574;11.170;2024-02-26T11:41:08;95991.44;;;18.57
13410;BMP180;6775;49.574;11.170;2024-02-26T11:43:52;95987.13;;;18.12
13410;BMP180;6775;49.574;11.170;2024-02-26T11:46:26;95992.75;;;18.09
13410;BMP180;6775;49.574;11.170;2024-02-26T11:48:58;95984.94;;;18.22
13410;BMP180;6775;49.574;11.170;2024-02-26T11:51:32;95979.31;;;18.81
13410;BMP180;6775;49.574;11.170;2024-02-26T11:54:01;95979.75;;;19.16
13410;BMP180;6775;49.574;11.170;2024-02-26T11:56:29;95977.22;;;19.58
13410;BMP180;6775;49.574;11.170;2024-02-26T11:59:02;95975.16;;;20.32
13410;BMP180;6775;49.574;11.170;2024-02-26T12:01:45;95969.00;;;21.96
13410;BMP180;6775;49.574;11.170;2024-02-26T12:04:22;95975.72;;;22.15
13410;BMP180;6775;49.574;11.170;2024-02-26T12:06:57;95982.31;;;20.37
13410;BMP180;6775;49.574;11.170;2024-02-26T12:09:35;95985.66;;;18.48
13410;BMP180;6775;49.574;11.170;2024-02-26T12:12:07;95987.94;;;17.16
13410;BMP180;6775;49.574;11.170;2024-02-26T12:14:38;95983.97;;;17.26
13410;BMP180;6775;49.574;11.170;2024-02-26T12:17:19;95981.34;;;18.23
13410;BMP180;6775;49.574;11.170;2024-02-26T12:19:47;95969.78;;;20.10
13410;BMP180;6775;49.574;11.170;2024-02-26T12:22:17;95976.09;;;22.30
13410;BMP180;6775;49.574;11.170;2024-02-26T12:24:45;95977.47;;;23.71
13410;BMP180;6775;49.574;11.170;2024-02-26T12:27:14;95979.63;;;25.03
13410;BMP180;6775;49.574;11.170;2024-02-26T12:29:42;95978.78;;;26.12
13410;BMP180;6775;49.574;11.170;2024-02-26T12:32:12;95986.56;;;26.34
13410;BMP180;6775;49.574;11.170;2024-02-26T12:34:40;95978.81;;;26.63
13410;BMP180;6775;49.574;11.170;2024-02-26T12:37:09;95984.00;;;26.99
13410;BMP180;6775;49.574;11.170;2024-02-26T12:39:39;95992.53;;;27.36
13410;BMP180;6775;49.574;11.170;2024-02-26T12:42:07;95983.38;;;27.88
13410;BMP180;6775;49.574;11.170;2024-02-26T12:44:37;95992.38;;;25.42
13410;BMP180;6775;49.574;11.170;2024-02-26T12:47:05;95986.91;;;22.72
13410;BMP180;6775;49.574;11.170;2024-02-26T12:49:34;95989.72;;;20.76
13410;BMP180;6775;49.574;11.170;2024-02-26T12:52:03;95983.84;;;19.54
13410;BMP180;6775;49.574;11.170;2024-02-26T12:54:33;95987.28;;;18.86
13410;BMP180;6775;49.574;11.170;2024-02-26T12:57:05;95994.31;;;18.86
13410;BMP180;6775;49.574;11.170;2024-02-26T12:59:35;95988.03;;;19.37
13410;BMP180;6775;49.574;11.170;2024-02-26T13:02:04;95982.28;;;20.90
13410;BMP180;6775;49.574;11.170;2024-02-26T13:04:34;95980.25;;;22.92
13410;BMP180;6775;49.574;11.170;2024-02-26T13:07:04;95970.75;;;25.09
13410;BMP180;6775;49.574;11.170;2024-02-26T13:09:33;95969.44;;;24.10
13410;BMP180;6775;49.574;11.170;2024-02-26T13:12:07;95987.13;;;21.45
13410;BMP180;6775;49.574;11.170;2024-02-26T13:14:35;95982.81;;;19.61
13410;BMP180;6775;49.574;11.170;2024-02-26T13:17:04;95980.06;;;18.51
13410;BMP180;6775;49.574;11.170;2024-02-26T13:19:32;95983.56;;;18.07
13410;BMP180;6775;49.574;11.170;2024-02-26T13:22:04;95988.56;;;17.31
13410;BMP180;6775;49.574;11.170;2024-02-26T13:24:33;95988.19;;;17.27
13410;BMP180;6775;49.574;11.170;2024-02-26T13:27:02;95985.97;;;18.71
13410;BMP180;6775;49.574;11.170;2024-02-26T13:29:34;95982.00;;;20.63
13410;BMP180;6775;49.574;11.170;2024-02-26T13:32:04;95986.53;;;22.41
13410;BMP180;6775;49.574;11.170;2024-02-26T13:34:33;95985.50;;;23.20
13410;BMP180;6775;49.574;11.170;2024-02-26T13:37:03;95984.38;;;23.16
13410;BMP180;6775;49.574;11.170;2024-02-26T13:39:32;95994.38;;;21.95
13410;BMP180;6775;49.574;11.170;2024-02-26T13:42:03;95992.28;;;21.63
13410;BMP180;6775;49.574;11.170;2024-02-26T13:44:32;95999.56;;;20.91
13410;BMP180;6775;49.574;11.170;2024-02-26T13:47:05;95999.31;;;20.93
13410;BMP180;6775;49.574;11.170;2024-02-26T13:49:33;96000.16;;;21.97
13410;BMP180;6775;49.574;11.170;2024-02-26T13:52:01;96002.72;;;23.16
13410;BMP180;6775;49.574;11.170;2024-02-26T13:54:29;95998.94;;;22.11
13410;BMP180;6775;49.574;11.170;2024-02-26T13:56:58;95993.16;;;19.98
13410;BMP180;6775;49.574;11.170;2024-02-26T13:59:26;95993.16;;;18.19
13410;BMP180;6775;49.574;11.170;2024-02-26T14:01:56;96005.88;;;17.05
13410;BMP180;6775;49.574;11.170;2024-02-26T14:04:25;96001.72;;;16.17
13410;BMP180;6775;49.574;11.170;2024-02-26T14:06:54;96001.03;;;15.68
13410;BMP180;6775;49.574;11.170;2024-02-26T14:09:22;96008.75;;;15.00
13410;BMP180;6775;49.574;11.170;2024-02-26T14:12:01;96008.66;;;14.58
13410;BMP180;6775;49.574;11.170;2024-02-26T14:14:30;96018.44;;;14.13
13410;BMP180;6775;49.574;11.170;2024-02-26T14:17:02;96021.03;;;13.76
13410;BMP180;6775;49.574;11.170;2024-02-26T14:19:32;96023.63;;;13.40
13410;BMP180;6775;49.574;11.170;2024-02-26T14:22:00;96029.94;;;13.15
13410;BMP180;6775;49.574;11.170;2024-02-26T14:24:28;96036.16;;;12.98
13410;BMP180;6775;49.574;11.170;2024-02-26T14:26:56;96036.94;;;12.84
13410;BMP180;6775;49.574;11.170;2024-02-26T14:29:24;96048.44;;;12.66